Observations de surface / France / LFRT

Québec | Canada | États-Unis | France | UK | Europe | Ailleurs

Affichage: Infos & localisation pour LFRT | Aide pour décoder les METARs

LFRT SAINT-BRIEUC ARMOR -- FR
Raw surface observations for station LFRT
LFRT 211700Z AUTO 10003KT 7000 NSC 02/M02 Q1023=
LFRT 211630Z AUTO 09003KT 8000 NSC 03/M02 Q1023=
LFRT 211600Z AUTO 06001KT CAVOK 04/M01 Q1023=
LFRT 211530Z AUTO 00000KT CAVOK 05/M02 Q1023=
LFRT 211500Z AUTO VRB02KT CAVOK 06/M01 Q1023=
LFRT 211430Z AUTO VRB01KT CAVOK 06/M01 Q1023=
LFRT 211400Z AUTO VRB03KT CAVOK 06/M01 Q1024=
LFRT 211330Z AUTO 20003KT 140V280 CAVOK 05/M02 Q1024=
LFRT 211300Z AUTO 20004KT 150V250 9000 NSC 04/M03 Q1024=
LFRT 211230Z AUTO 18005KT 140V220 7000 NSC 03/M03 Q1024=
LFRT 211200Z AUTO 16005KT 130V200 6000 NSC 02/M03 Q1025=
LFRT 211130Z AUTO 14004KT 110V180 5000 BR NSC 02/M03 Q1025=
LFRT 211100Z AUTO VRB02KT 5000 BR NSC 01/M03 Q1025=
LFRT 211030Z AUTO VRB01KT 4100 BR NSC 00/M03 Q1025=
LFRT 211000Z AUTO 16003KT 4800 BR NSC M00/M03 Q1025=
LFRT 210930Z AUTO 17004KT 5000 BR NSC M02/M04 Q1025=
LFRT 210900Z AUTO 18004KT 150V210 6000 NSC M03/M05 Q1025=
LFRT 210830Z AUTO 16004KT 5000 BR NSC M05/M07 Q1025=
LFRT 210800Z AUTO 18003KT 6000 NSC M05/M06 Q1025=
LFRT 210730Z AUTO 18004KT 6000 NSC M05/M06 Q1025=
LFRT 210700Z AUTO 17004KT 6000 NSC M05/M07 Q1025=
LFRT 202200Z AUTO 15003KT 4900 BR NSC M04/M05 Q1027=
LFRT 202130Z AUTO 14004KT 5000 BR NSC M03/M05 Q1027=
LFRT 202100Z AUTO 14004KT 5000 BR NSC M03/M05 Q1027=
LFRT 202030Z AUTO 14004KT 5000 BR NSC M03/M05 Q1027=
LFRT 202000Z AUTO 15003KT 6000 NSC M03/M05 Q1027=
LFRT 201930Z AUTO 13004KT 6000 NSC M03/M05 Q1027=
LFRT 201900Z AUTO 13005KT 6000 NSC M02/M05 Q1027=
LFRT 201830Z AUTO 12004KT 7000 NSC M02/M05 Q1027=
LFRT 201800Z AUTO 13004KT 7000 NSC M02/M05 Q1027=
LFRT 201730Z AUTO 13003KT 8000 NSC M01/M05 Q1026=
LFRT 201700Z AUTO 10003KT 020V120 9000 NSC M01/M05 Q1026=